sensor_id;sensor_type;location;lat;lon;timestamp;P1;durP1;ratioP1;P2;durP2;ratioP2
14740;SDS011;7462;53.530;9.414;2022-12-18T00:00:05;28.60;;;16.20;;
14740;SDS011;7462;53.530;9.414;2022-12-18T00:02:39;25.27;;;16.77;;
14740;SDS011;7462;53.530;9.414;2022-12-18T00:05:07;24.90;;;14.17;;
14740;SDS011;7462;53.530;9.414;2022-12-18T00:07:35;25.37;;;16.90;;
14740;SDS011;7462;53.530;9.414;2022-12-18T00:10:04;24.00;;;17.17;;
14740;SDS011;7462;53.530;9.414;2022-12-18T00:12:35;27.53;;;16.77;;
14740;SDS011;7462;53.530;9.414;2022-12-18T00:15:03;24.03;;;16.90;;
14740;SDS011;7462;53.530;9.414;2022-12-18T00:17:31;24.23;;;15.60;;
14740;SDS011;7462;53.530;9.414;2022-12-18T00:19:59;24.90;;;15.33;;
14740;SDS011;7462;53.530;9.414;2022-12-18T00:22:27;21.43;;;15.37;;
14740;SDS011;7462;53.530;9.414;2022-12-18T00:24:55;24.03;;;15.37;;
14740;SDS011;7462;53.530;9.414;2022-12-18T00:27:25;25.30;;;15.13;;
14740;SDS011;7462;53.530;9.414;2022-12-18T00:29:53;21.90;;;14.57;;
14740;SDS011;7462;53.530;9.414;2022-12-18T00:32:21;22.23;;;15.33;;
14740;SDS011;7462;53.530;9.414;2022-12-18T00:34:49;23.63;;;14.03;;
14740;SDS011;7462;53.530;9.414;2022-12-18T00:37:17;21.90;;;14.77;;
14740;SDS011;7462;53.530;9.414;2022-12-18T00:39:49;22.97;;;14.87;;
14740;SDS011;7462;53.530;9.414;2022-12-18T00:42:18;26.30;;;14.10;;
14740;SDS011;7462;53.530;9.414;2022-12-18T00:45:06;22.67;;;14.17;;
14740;SDS011;7462;53.530;9.414;2022-12-18T00:47:38;22.37;;;13.63;;
14740;SDS011;7462;53.530;9.414;2022-12-18T00:50:07;20.73;;;14.50;;
14740;SDS011;7462;53.530;9.414;2022-12-18T00:52:36;21.53;;;14.47;;
14740;SDS011;7462;53.530;9.414;2022-12-18T00:55:04;21.40;;;13.40;;
14740;SDS011;7462;53.530;9.414;2022-12-18T00:57:36;24.73;;;13.30;;
14740;SDS011;7462;53.530;9.414;2022-12-18T01:00:08;20.70;;;13.17;;
14740;SDS011;7462;53.530;9.414;2022-12-18T01:02:40;17.40;;;12.70;;
14740;SDS011;7462;53.530;9.414;2022-12-18T01:05:08;21.33;;;14.17;;
14740;SDS011;7462;53.530;9.414;2022-12-18T01:07:38;21.00;;;13.40;;
14740;SDS011;7462;53.530;9.414;2022-12-18T01:10:07;21.47;;;13.00;;
14740;SDS011;7462;53.530;9.414;2022-12-18T01:12:37;20.57;;;12.87;;
14740;SDS011;7462;53.530;9.414;2022-12-18T01:15:10;19.20;;;12.87;;
14740;SDS011;7462;53.530;9.414;2022-12-18T01:17:39;21.80;;;12.83;;
14740;SDS011;7462;53.530;9.414;2022-12-18T01:20:07;20.07;;;12.57;;
14740;SDS011;7462;53.530;9.414;2022-12-18T01:22:37;21.67;;;13.13;;
14740;SDS011;7462;53.530;9.414;2022-12-18T01:25:06;18.47;;;12.07;;
14740;SDS011;7462;53.530;9.414;2022-12-18T01:27:35;18.33;;;10.97;;
14740;SDS011;7462;53.530;9.414;2022-12-18T01:30:03;20.73;;;12.67;;
14740;SDS011;7462;53.530;9.414;2022-12-18T01:32:33;21.27;;;13.03;;
14740;SDS011;7462;53.530;9.414;2022-12-18T01:35:01;19.33;;;13.20;;
14740;SDS011;7462;53.530;9.414;2022-12-18T01:37:30;18.30;;;12.73;;
14740;SDS011;7462;53.530;9.414;2022-12-18T01:39:58;23.57;;;14.43;;
14740;SDS011;7462;53.530;9.414;2022-12-18T01:42:27;19.87;;;14.33;;
14740;SDS011;7462;53.530;9.414;2022-12-18T01:44:56;21.10;;;12.47;;
14740;SDS011;7462;53.530;9.414;2022-12-18T01:47:28;21.27;;;13.77;;
14740;SDS011;7462;53.530;9.414;2022-12-18T01:50:00;20.23;;;13.17;;
14740;SDS011;7462;53.530;9.414;2022-12-18T01:52:32;18.53;;;12.67;;
14740;SDS011;7462;53.530;9.414;2022-12-18T01:55:02;23.90;;;12.60;;
14740;SDS011;7462;53.530;9.414;2022-12-18T01:57:32;17.13;;;11.13;;
14740;SDS011;7462;53.530;9.414;2022-12-18T02:00:03;20.83;;;12.67;;
14740;SDS011;7462;53.530;9.414;2022-12-18T02:02:40;16.47;;;11.67;;
14740;SDS011;7462;53.530;9.414;2022-12-18T02:05:10;20.13;;;12.00;;
14740;SDS011;7462;53.530;9.414;2022-12-18T02:07:43;16.67;;;10.80;;
14740;SDS011;7462;53.530;9.414;2022-12-18T02:10:20;19.73;;;12.33;;
14740;SDS011;7462;53.530;9.414;2022-12-18T02:12:55;20.23;;;11.43;;
14740;SDS011;7462;53.530;9.414;2022-12-18T02:15:31;16.90;;;11.30;;
14740;SDS011;7462;53.530;9.414;2022-12-18T02:18:05;21.07;;;11.20;;
14740;SDS011;7462;53.530;9.414;2022-12-18T02:20:39;17.33;;;10.80;;
14740;SDS011;7462;53.530;9.414;2022-12-18T02:23:16;16.57;;;11.50;;
14740;SDS011;7462;53.530;9.414;2022-12-18T02:28:51;15.80;;;10.03;;
14740;SDS011;7462;53.530;9.414;2022-12-18T02:31:24;16.43;;;10.50;;
14740;SDS011;7462;53.530;9.414;2022-12-18T02:33:58;16.80;;;10.80;;
14740;SDS011;7462;53.530;9.414;2022-12-18T02:36:34;17.10;;;11.10;;
14740;SDS011;7462;53.530;9.414;2022-12-18T02:39:05;18.93;;;10.57;;
14740;SDS011;7462;53.530;9.414;2022-12-18T02:41:38;15.87;;;10.53;;
14740;SDS011;7462;53.530;9.414;2022-12-18T02:44:08;15.77;;;10.13;;
14740;SDS011;7462;53.530;9.414;2022-12-18T02:46:39;14.47;;;9.10;;
14740;SDS011;7462;53.530;9.414;2022-12-18T02:49:17;19.83;;;11.27;;
14740;SDS011;7462;53.530;9.414;2022-12-18T02:51:58;14.77;;;10.10;;
14740;SDS011;7462;53.530;9.414;2022-12-18T02:54:36;15.93;;;9.80;;
14740;SDS011;7462;53.530;9.414;2022-12-18T02:57:16;15.43;;;11.40;;
14740;SDS011;7462;53.530;9.414;2022-12-18T02:59:54;20.37;;;10.60;;
14740;SDS011;7462;53.530;9.414;2022-12-18T03:02:43;17.93;;;11.03;;
14740;SDS011;7462;53.530;9.414;2022-12-18T03:05:16;16.33;;;10.53;;
14740;SDS011;7462;53.530;9.414;2022-12-18T03:07:50;17.20;;;10.43;;
14740;SDS011;7462;53.530;9.414;2022-12-18T03:10:28;16.13;;;10.43;;
14740;SDS011;7462;53.530;9.414;2022-12-18T03:13:04;16.70;;;10.17;;
14740;SDS011;7462;53.530;9.414;2022-12-18T03:15:36;16.03;;;10.50;;
14740;SDS011;7462;53.530;9.414;2022-12-18T03:18:12;18.67;;;10.90;;
14740;SDS011;7462;53.530;9.414;2022-12-18T03:20:44;18.40;;;10.63;;
14740;SDS011;7462;53.530;9.414;2022-12-18T03:23:18;16.27;;;10.43;;
14740;SDS011;7462;53.530;9.414;2022-12-18T03:25:52;18.10;;;10.43;;
14740;SDS011;7462;53.530;9.414;2022-12-18T03:28:31;16.10;;;10.37;;
14740;SDS011;7462;53.530;9.414;2022-12-18T03:31:03;16.60;;;10.63;;
14740;SDS011;7462;53.530;9.414;2022-12-18T03:33:36;15.80;;;11.00;;
14740;SDS011;7462;53.530;9.414;2022-12-18T03:36:08;14.70;;;9.47;;
14740;SDS011;7462;53.530;9.414;2022-12-18T03:38:37;18.70;;;11.27;;
14740;SDS011;7462;53.530;9.414;2022-12-18T03:41:10;17.13;;;10.50;;
14740;SDS011;7462;53.530;9.414;2022-12-18T03:44:08;13.63;;;9.30;;
14740;SDS011;7462;53.530;9.414;2022-12-18T03:46:45;16.50;;;10.50;;
14740;SDS011;7462;53.530;9.414;2022-12-18T03:49:22;15.73;;;10.23;;
14740;SDS011;7462;53.530;9.414;2022-12-18T03:51:57;15.03;;;10.10;;
14740;SDS011;7462;53.530;9.414;2022-12-18T03:54:31;21.13;;;11.17;;
14740;SDS011;7462;53.530;9.414;2022-12-18T03:57:15;17.27;;;10.10;;
14740;SDS011;7462;53.530;9.414;2022-12-18T03:59:49;16.60;;;10.83;;
14740;SDS011;7462;53.530;9.414;2022-12-18T04:02:26;15.87;;;11.03;;
14740;SDS011;7462;53.530;9.414;2022-12-18T04:04:59;15.77;;;10.40;;
14740;SDS011;7462;53.530;9.414;2022-12-18T04:07:31;16.20;;;10.23;;
14740;SDS011;7462;53.530;9.414;2022-12-18T04:10:00;18.77;;;10.83;;
14740;SDS011;7462;53.530;9.414;2022-12-18T04:12:30;18.27;;;11.00;;
14740;SDS011;7462;53.530;9.414;2022-12-18T04:15:01;16.13;;;10.27;;
14740;SDS011;7462;53.530;9.414;2022-12-18T04:17:29;17.43;;;11.23;;
14740;SDS011;7462;53.530;9.414;2022-12-18T04:19:57;17.77;;;10.40;;
14740;SDS011;7462;53.530;9.414;2022-12-18T04:22:25;17.50;;;10.30;;
14740;SDS011;7462;53.530;9.414;2022-12-18T04:24:57;16.43;;;11.30;;
14740;SDS011;7462;53.530;9.414;2022-12-18T04:27:34;16.80;;;10.83;;
14740;SDS011;7462;53.530;9.414;2022-12-18T04:30:05;16.83;;;10.73;;
14740;SDS011;7462;53.530;9.414;2022-12-18T04:32:34;19.03;;;10.27;;
14740;SDS011;7462;53.530;9.414;2022-12-18T04:35:03;16.53;;;10.87;;
14740;SDS011;7462;53.530;9.414;2022-12-18T04:37:34;17.37;;;11.07;;
14740;SDS011;7462;53.530;9.414;2022-12-18T04:40:04;16.67;;;10.80;;
14740;SDS011;7462;53.530;9.414;2022-12-18T04:42:39;16.67;;;9.90;;
14740;SDS011;7462;53.530;9.414;2022-12-18T04:45:09;16.50;;;10.23;;
14740;SDS011;7462;53.530;9.414;2022-12-18T04:47:37;18.67;;;10.97;;
14740;SDS011;7462;53.530;9.414;2022-12-18T04:50:05;17.90;;;11.03;;
14740;SDS011;7462;53.530;9.414;2022-12-18T04:52:34;20.50;;;9.90;;
14740;SDS011;7462;53.530;9.414;2022-12-18T04:55:03;15.30;;;10.43;;
14740;SDS011;7462;53.530;9.414;2022-12-18T04:57:31;18.90;;;10.73;;
14740;SDS011;7462;53.530;9.414;2022-12-18T05:00:02;16.87;;;9.83;;
14740;SDS011;7462;53.530;9.414;2022-12-18T05:02:33;17.07;;;10.37;;
14740;SDS011;7462;53.530;9.414;2022-12-18T05:05:01;16.67;;;9.93;;
14740;SDS011;7462;53.530;9.414;2022-12-18T05:07:30;18.50;;;10.77;;
14740;SDS011;7462;53.530;9.414;2022-12-18T05:09:58;17.10;;;10.67;;
14740;SDS011;7462;53.530;9.414;2022-12-18T05:12:26;14.13;;;10.07;;
14740;SDS011;7462;53.530;9.414;2022-12-18T05:14:54;15.47;;;10.57;;
14740;SDS011;7462;53.530;9.414;2022-12-18T05:17:22;15.37;;;9.97;;
14740;SDS011;7462;53.530;9.414;2022-12-18T05:19:51;17.40;;;10.73;;
14740;SDS011;7462;53.530;9.414;2022-12-18T05:22:19;21.90;;;12.30;;
14740;SDS011;7462;53.530;9.414;2022-12-18T05:24:47;22.80;;;13.03;;
14740;SDS011;7462;53.530;9.414;2022-12-18T05:27:15;21.60;;;14.33;;
14740;SDS011;7462;53.530;9.414;2022-12-18T05:29:45;22.30;;;13.53;;
14740;SDS011;7462;53.530;9.414;2022-12-18T05:32:13;21.13;;;13.43;;
14740;SDS011;7462;53.530;9.414;2022-12-18T05:34:41;21.37;;;12.63;;
14740;SDS011;7462;53.530;9.414;2022-12-18T05:37:11;20.97;;;12.53;;
14740;SDS011;7462;53.530;9.414;2022-12-18T05:39:39;18.90;;;11.23;;
14740;SDS011;7462;53.530;9.414;2022-12-18T05:42:07;20.07;;;10.80;;
14740;SDS011;7462;53.530;9.414;2022-12-18T05:44:36;15.80;;;10.87;;
14740;SDS011;7462;53.530;9.414;2022-12-18T05:47:04;16.17;;;10.90;;
14740;SDS011;7462;53.530;9.414;2022-12-18T05:49:32;14.20;;;9.90;;
14740;SDS011;7462;53.530;9.414;2022-12-18T05:52:00;16.63;;;10.47;;
14740;SDS011;7462;53.530;9.414;2022-12-18T05:54:29;17.93;;;11.33;;
14740;SDS011;7462;53.530;9.414;2022-12-18T05:56:58;19.57;;;10.47;;
14740;SDS011;7462;53.530;9.414;2022-12-18T05:59:26;16.07;;;10.83;;
14740;SDS011;7462;53.530;9.414;2022-12-18T06:01:54;16.03;;;10.87;;
14740;SDS011;7462;53.530;9.414;2022-12-18T06:04:22;14.47;;;9.97;;
14740;SDS011;7462;53.530;9.414;2022-12-18T06:06:50;18.70;;;11.47;;
14740;SDS011;7462;53.530;9.414;2022-12-18T06:09:18;19.10;;;11.37;;
14740;SDS011;7462;53.530;9.414;2022-12-18T06:11:48;18.33;;;12.10;;
14740;SDS011;7462;53.530;9.414;2022-12-18T06:14:18;21.00;;;13.10;;
14740;SDS011;7462;53.530;9.414;2022-12-18T06:16:46;17.77;;;11.20;;
14740;SDS011;7462;53.530;9.414;2022-12-18T06:19:14;16.30;;;11.57;;
14740;SDS011;7462;53.530;9.414;2022-12-18T06:21:43;18.03;;;11.50;;
14740;SDS011;7462;53.530;9.414;2022-12-18T06:24:12;16.23;;;10.57;;
14740;SDS011;7462;53.530;9.414;2022-12-18T06:26:40;16.63;;;9.57;;
14740;SDS011;7462;53.530;9.414;2022-12-18T06:29:10;17.50;;;10.33;;
14740;SDS011;7462;53.530;9.414;2022-12-18T06:31:38;15.37;;;9.87;;
14740;SDS011;7462;53.530;9.414;2022-12-18T06:34:06;17.00;;;10.60;;
14740;SDS011;7462;53.530;9.414;2022-12-18T06:36:34;16.33;;;10.57;;
14740;SDS011;7462;53.530;9.414;2022-12-18T06:39:02;17.13;;;11.47;;
14740;SDS011;7462;53.530;9.414;2022-12-18T06:41:31;16.63;;;10.37;;
14740;SDS011;7462;53.530;9.414;2022-12-18T06:43:59;16.80;;;10.70;;
14740;SDS011;7462;53.530;9.414;2022-12-18T06:46:28;17.60;;;9.77;;
14740;SDS011;7462;53.530;9.414;2022-12-18T06:48:56;15.57;;;9.17;;
14740;SDS011;7462;53.530;9.414;2022-12-18T06:51:25;14.83;;;9.53;;
14740;SDS011;7462;53.530;9.414;2022-12-18T06:53:53;14.17;;;10.00;;
14740;SDS011;7462;53.530;9.414;2022-12-18T06:56:21;15.00;;;9.37;;
14740;SDS011;7462;53.530;9.414;2022-12-18T06:58:49;13.80;;;9.27;;
14740;SDS011;7462;53.530;9.414;2022-12-18T07:01:17;15.37;;;9.07;;
14740;SDS011;7462;53.530;9.414;2022-12-18T07:03:51;13.00;;;8.40;;
14740;SDS011;7462;53.530;9.414;2022-12-18T07:06:19;15.97;;;8.90;;
14740;SDS011;7462;53.530;9.414;2022-12-18T07:08:49;13.63;;;8.37;;
14740;SDS011;7462;53.530;9.414;2022-12-18T07:11:18;14.93;;;9.17;;
14740;SDS011;7462;53.530;9.414;2022-12-18T07:13:46;14.03;;;8.63;;
14740;SDS011;7462;53.530;9.414;2022-12-18T07:16:15;14.97;;;9.27;;
14740;SDS011;7462;53.530;9.414;2022-12-18T07:18:51;14.83;;;8.97;;
14740;SDS011;7462;53.530;9.414;2022-12-18T07:21:19;15.47;;;9.67;;
14740;SDS011;7462;53.530;9.414;2022-12-18T07:23:48;13.73;;;8.93;;
14740;SDS011;7462;53.530;9.414;2022-12-18T07:26:17;14.70;;;8.60;;
14740;SDS011;7462;53.530;9.414;2022-12-18T07:28:46;14.17;;;9.37;;
14740;SDS011;7462;53.530;9.414;2022-12-18T07:31:16;13.80;;;8.87;;
14740;SDS011;7462;53.530;9.414;2022-12-18T07:33:47;17.53;;;9.60;;
14740;SDS011;7462;53.530;9.414;2022-12-18T07:36:17;11.13;;;8.67;;
14740;SDS011;7462;53.530;9.414;2022-12-18T07:38:46;15.83;;;9.47;;
14740;SDS011;7462;53.530;9.414;2022-12-18T07:41:14;17.43;;;9.33;;
14740;SDS011;7462;53.530;9.414;2022-12-18T07:43:43;17.67;;;9.63;;
14740;SDS011;7462;53.530;9.414;2022-12-18T07:46:11;15.63;;;8.57;;
14740;SDS011;7462;53.530;9.414;2022-12-18T07:48:40;16.10;;;9.57;;
14740;SDS011;7462;53.530;9.414;2022-12-18T07:51:14;14.10;;;9.07;;
14740;SDS011;7462;53.530;9.414;2022-12-18T07:53:44;15.37;;;9.07;;
14740;SDS011;7462;53.530;9.414;2022-12-18T07:56:17;16.83;;;9.00;;
14740;SDS011;7462;53.530;9.414;2022-12-18T07:58:55;13.87;;;8.60;;
14740;SDS011;7462;53.530;9.414;2022-12-18T08:01:24;13.10;;;8.17;;
14740;SDS011;7462;53.530;9.414;2022-12-18T08:03:53;16.27;;;9.43;;
14740;SDS011;7462;53.530;9.414;2022-12-18T08:06:22;14.40;;;8.93;;
14740;SDS011;7462;53.530;9.414;2022-12-18T08:08:51;16.23;;;9.63;;
14740;SDS011;7462;53.530;9.414;2022-12-18T08:11:19;15.40;;;9.47;;
14740;SDS011;7462;53.530;9.414;2022-12-18T08:13:48;15.07;;;10.10;;
14740;SDS011;7462;53.530;9.414;2022-12-18T08:16:16;15.53;;;8.87;;
14740;SDS011;7462;53.530;9.414;2022-12-18T08:18:46;14.97;;;9.67;;
14740;SDS011;7462;53.530;9.414;2022-12-18T08:21:16;15.40;;;9.93;;
14740;SDS011;7462;53.530;9.414;2022-12-18T08:23:48;15.27;;;10.27;;
14740;SDS011;7462;53.530;9.414;2022-12-18T08:26:18;13.87;;;9.77;;
14740;SDS011;7462;53.530;9.414;2022-12-18T08:28:47;13.40;;;9.27;;
14740;SDS011;7462;53.530;9.414;2022-12-18T08:31:16;14.10;;;9.20;;
14740;SDS011;7462;53.530;9.414;2022-12-18T08:33:45;15.07;;;9.77;;
14740;SDS011;7462;53.530;9.414;2022-12-18T08:36:15;14.90;;;9.37;;
14740;SDS011;7462;53.530;9.414;2022-12-18T08:38:43;13.83;;;8.97;;
14740;SDS011;7462;53.530;9.414;2022-12-18T08:41:14;15.20;;;9.17;;
14740;SDS011;7462;53.530;9.414;2022-12-18T08:43:43;15.57;;;10.20;;
14740;SDS011;7462;53.530;9.414;2022-12-18T08:46:31;13.43;;;8.97;;
14740;SDS011;7462;53.530;9.414;2022-12-18T08:49:01;16.67;;;9.73;;
14740;SDS011;7462;53.530;9.414;2022-12-18T08:51:30;14.60;;;9.60;;
14740;SDS011;7462;53.530;9.414;2022-12-18T08:53:58;13.63;;;9.47;;
14740;SDS011;7462;53.530;9.414;2022-12-18T08:56:28;15.10;;;9.73;;
14740;SDS011;7462;53.530;9.414;2022-12-18T08:58:57;22.07;;;11.37;;
14740;SDS011;7462;53.530;9.414;2022-12-18T09:01:25;18.27;;;11.10;;
14740;SDS011;7462;53.530;9.414;2022-12-18T09:03:53;15.40;;;10.93;;
14740;SDS011;7462;53.530;9.414;2022-12-18T09:06:22;15.47;;;10.40;;
14740;SDS011;7462;53.530;9.414;2022-12-18T09:08:51;19.63;;;12.53;;
14740;SDS011;7462;53.530;9.414;2022-12-18T09:11:21;16.33;;;11.57;;
14740;SDS011;7462;53.530;9.414;2022-12-18T09:13:52;17.13;;;11.87;;
14740;SDS011;7462;53.530;9.414;2022-12-18T09:16:22;16.63;;;10.63;;
14740;SDS011;7462;53.530;9.414;2022-12-18T09:18:57;16.20;;;10.70;;
14740;SDS011;7462;53.530;9.414;2022-12-18T09:21:27;15.53;;;9.90;;
14740;SDS011;7462;53.530;9.414;2022-12-18T09:24:01;13.17;;;8.93;;
14740;SDS011;7462;53.530;9.414;2022-12-18T09:26:30;15.13;;;8.63;;
14740;SDS011;7462;53.530;9.414;2022-12-18T09:28:59;13.60;;;9.13;;
14740;SDS011;7462;53.530;9.414;2022-12-18T09:31:27;12.63;;;8.87;;
14740;SDS011;7462;53.530;9.414;2022-12-18T09:33:55;11.30;;;8.27;;
14740;SDS011;7462;53.530;9.414;2022-12-18T09:36:23;14.10;;;8.23;;
14740;SDS011;7462;53.530;9.414;2022-12-18T09:38:51;12.23;;;8.27;;
14740;SDS011;7462;53.530;9.414;2022-12-18T09:41:26;15.23;;;9.03;;
14740;SDS011;7462;53.530;9.414;2022-12-18T09:44:04;15.40;;;9.53;;
14740;SDS011;7462;53.530;9.414;2022-12-18T09:46:43;13.47;;;8.60;;
14740;SDS011;7462;53.530;9.414;2022-12-18T09:49:14;10.00;;;8.00;;
14740;SDS011;7462;53.530;9.414;2022-12-18T09:51:47;12.00;;;7.77;;
14740;SDS011;7462;53.530;9.414;2022-12-18T09:54:20;11.73;;;8.10;;
14740;SDS011;7462;53.530;9.414;2022-12-18T09:56:53;14.83;;;9.17;;
14740;SDS011;7462;53.530;9.414;2022-12-18T09:59:24;11.93;;;8.50;;
14740;SDS011;7462;53.530;9.414;2022-12-18T10:01:57;12.63;;;8.40;;
14740;SDS011;7462;53.530;9.414;2022-12-18T10:04:25;12.20;;;8.80;;
14740;SDS011;7462;53.530;9.414;2022-12-18T10:06:59;11.97;;;8.73;;
14740;SDS011;7462;53.530;9.414;2022-12-18T10:09:37;11.40;;;8.33;;
14740;SDS011;7462;53.530;9.414;2022-12-18T10:12:12;11.60;;;8.17;;
14740;SDS011;7462;53.530;9.414;2022-12-18T10:14:50;14.60;;;8.57;;
14740;SDS011;7462;53.530;9.414;2022-12-18T10:17:26;12.27;;;8.70;;
14740;SDS011;7462;53.530;9.414;2022-12-18T10:20:05;13.70;;;8.97;;
14740;SDS011;7462;53.530;9.414;2022-12-18T10:22:43;12.10;;;8.20;;
14740;SDS011;7462;53.530;9.414;2022-12-18T10:25:21;14.67;;;9.57;;
14740;SDS011;7462;53.530;9.414;2022-12-18T10:27:51;12.67;;;8.87;;
14740;SDS011;7462;53.530;9.414;2022-12-18T10:30:24;15.20;;;10.07;;
14740;SDS011;7462;53.530;9.414;2022-12-18T10:32:53;12.57;;;8.90;;
14740;SDS011;7462;53.530;9.414;2022-12-18T10:35:23;12.40;;;8.47;;
14740;SDS011;7462;53.530;9.414;2022-12-18T10:37:59;11.03;;;8.13;;
14740;SDS011;7462;53.530;9.414;2022-12-18T10:40:29;10.73;;;8.30;;
14740;SDS011;7462;53.530;9.414;2022-12-18T10:43:04;10.70;;;8.27;;
14740;SDS011;7462;53.530;9.414;2022-12-18T10:45:39;12.10;;;7.83;;
14740;SDS011;7462;53.530;9.414;2022-12-18T10:48:17;13.13;;;8.90;;
14740;SDS011;7462;53.530;9.414;2022-12-18T10:50:47;16.93;;;10.23;;
14740;SDS011;7462;53.530;9.414;2022-12-18T10:53:38;16.43;;;10.00;;
14740;SDS011;7462;53.530;9.414;2022-12-18T10:56:09;11.83;;;8.93;;
14740;SDS011;7462;53.530;9.414;2022-12-18T10:58:38;14.67;;;9.53;;
14740;SDS011;7462;53.530;9.414;2022-12-18T11:01:09;11.83;;;8.03;;
14740;SDS011;7462;53.530;9.414;2022-12-18T11:03:40;11.83;;;8.30;;
14740;SDS011;7462;53.530;9.414;2022-12-18T11:06:10;10.67;;;7.93;;
14740;SDS011;7462;53.530;9.414;2022-12-18T11:08:40;13.43;;;8.80;;
14740;SDS011;7462;53.530;9.414;2022-12-18T11:11:15;14.13;;;8.63;;
14740;SDS011;7462;53.530;9.414;2022-12-18T11:13:50;10.93;;;7.87;;
14740;SDS011;7462;53.530;9.414;2022-12-18T11:16:26;18.77;;;16.33;;
14740;SDS011;7462;53.530;9.414;2022-12-18T11:19:07;13.37;;;9.03;;
14740;SDS011;7462;53.530;9.414;2022-12-18T11:21:51;11.93;;;8.20;;
14740;SDS011;7462;53.530;9.414;2022-12-18T11:24:20;10.17;;;7.83;;
14740;SDS011;7462;53.530;9.414;2022-12-18T11:26:54;12.90;;;8.93;;
14740;SDS011;7462;53.530;9.414;2022-12-18T11:29:28;15.97;;;9.77;;
14740;SDS011;7462;53.530;9.414;2022-12-18T11:35:10;13.90;;;10.07;;
14740;SDS011;7462;53.530;9.414;2022-12-18T11:37:43;13.87;;;9.83;;
14740;SDS011;7462;53.530;9.414;2022-12-18T11:40:16;14.30;;;9.73;;
14740;SDS011;7462;53.530;9.414;2022-12-18T11:42:48;14.40;;;9.30;;
14740;SDS011;7462;53.530;9.414;2022-12-18T11:45:27;16.20;;;10.70;;
14740;SDS011;7462;53.530;9.414;2022-12-18T11:48:00;14.23;;;9.50;;
14740;SDS011;7462;53.530;9.414;2022-12-18T11:50:33;13.57;;;8.90;;
14740;SDS011;7462;53.530;9.414;2022-12-18T11:53:10;14.87;;;9.63;;
14740;SDS011;7462;53.530;9.414;2022-12-18T11:55:41;12.20;;;9.37;;
14740;SDS011;7462;53.530;9.414;2022-12-18T11:58:16;11.30;;;8.57;;
14740;SDS011;7462;53.530;9.414;2022-12-18T12:01:05;10.57;;;8.47;;
14740;SDS011;7462;53.530;9.414;2022-12-18T12:03:48;12.17;;;9.53;;
14740;SDS011;7462;53.530;9.414;2022-12-18T12:06:31;12.67;;;9.83;;
14740;SDS011;7462;53.530;9.414;2022-12-18T12:09:11;15.47;;;9.50;;
14740;SDS011;7462;53.530;9.414;2022-12-18T12:11:50;13.67;;;8.37;;
14740;SDS011;7462;53.530;9.414;2022-12-18T12:14:45;12.30;;;8.27;;
14740;SDS011;7462;53.530;9.414;2022-12-18T12:17:23;14.47;;;9.13;;
14740;SDS011;7462;53.530;9.414;2022-12-18T12:20:02;14.30;;;9.73;;
14740;SDS011;7462;53.530;9.414;2022-12-18T12:22:39;13.87;;;10.07;;
14740;SDS011;7462;53.530;9.414;2022-12-18T12:25:22;12.80;;;8.60;;
14740;SDS011;7462;53.530;9.414;2022-12-18T12:28:02;13.10;;;8.97;;
14740;SDS011;7462;53.530;9.414;2022-12-18T12:30:44;16.07;;;10.00;;
14740;SDS011;7462;53.530;9.414;2022-12-18T12:33:23;14.17;;;9.80;;
14740;SDS011;7462;53.530;9.414;2022-12-18T12:36:02;12.77;;;7.93;;
14740;SDS011;7462;53.530;9.414;2022-12-18T12:38:39;14.80;;;9.97;;
14740;SDS011;7462;53.530;9.414;2022-12-18T12:41:18;12.80;;;8.90;;
14740;SDS011;7462;53.530;9.414;2022-12-18T12:44:07;13.37;;;8.73;;
14740;SDS011;7462;53.530;9.414;2022-12-18T12:46:40;13.93;;;9.27;;
14740;SDS011;7462;53.530;9.414;2022-12-18T12:49:12;18.63;;;9.90;;
14740;SDS011;7462;53.530;9.414;2022-12-18T12:51:44;13.43;;;8.83;;
14740;SDS011;7462;53.530;9.414;2022-12-18T12:54:19;12.40;;;8.90;;
14740;SDS011;7462;53.530;9.414;2022-12-18T12:56:51;11.03;;;7.83;;
14740;SDS011;7462;53.530;9.414;2022-12-18T12:59:28;11.60;;;7.33;;
14740;SDS011;7462;53.530;9.414;2022-12-18T13:02:05;9.70;;;6.90;;
14740;SDS011;7462;53.530;9.414;2022-12-18T13:04:42;11.33;;;7.83;;
14740;SDS011;7462;53.530;9.414;2022-12-18T13:07:17;12.37;;;7.77;;
14740;SDS011;7462;53.530;9.414;2022-12-18T13:12:56;12.13;;;7.93;;
14740;SDS011;7462;53.530;9.414;2022-12-18T13:15:25;12.17;;;7.93;;
14740;SDS011;7462;53.530;9.414;2022-12-18T13:18:04;10.33;;;7.50;;
14740;SDS011;7462;53.530;9.414;2022-12-18T13:20:40;11.87;;;7.53;;
14740;SDS011;7462;53.530;9.414;2022-12-18T13:23:25;10.40;;;7.53;;
14740;SDS011;7462;53.530;9.414;2022-12-18T13:25:56;10.47;;;7.23;;
14740;SDS011;7462;53.530;9.414;2022-12-18T13:34:19;12.53;;;7.37;;
14740;SDS011;7462;53.530;9.414;2022-12-18T13:36:54;14.60;;;8.10;;
14740;SDS011;7462;53.530;9.414;2022-12-18T13:39:30;12.60;;;8.93;;
14740;SDS011;7462;53.530;9.414;2022-12-18T13:45:40;12.20;;;7.93;;
14740;SDS011;7462;53.530;9.414;2022-12-18T13:48:20;9.77;;;7.23;;
14740;SDS011;7462;53.530;9.414;2022-12-18T13:50:57;13.57;;;7.70;;
14740;SDS011;7462;53.530;9.414;2022-12-18T13:53:29;12.23;;;8.00;;
14740;SDS011;7462;53.530;9.414;2022-12-18T13:56:03;12.47;;;8.77;;
14740;SDS011;7462;53.530;9.414;2022-12-18T13:58:31;16.77;;;9.77;;
14740;SDS011;7462;53.530;9.414;2022-12-18T14:00:59;16.63;;;9.43;;
14740;SDS011;7462;53.530;9.414;2022-12-18T14:03:29;12.40;;;7.67;;
14740;SDS011;7462;53.530;9.414;2022-12-18T14:05:59;11.23;;;6.50;;
14740;SDS011;7462;53.530;9.414;2022-12-18T14:08:36;11.90;;;6.37;;
14740;SDS011;7462;53.530;9.414;2022-12-18T14:11:08;7.63;;;5.70;;
14740;SDS011;7462;53.530;9.414;2022-12-18T14:13:48;9.10;;;5.63;;
14740;SDS011;7462;53.530;9.414;2022-12-18T14:16:17;8.97;;;5.30;;
14740;SDS011;7462;53.530;9.414;2022-12-18T14:18:46;8.93;;;6.13;;
14740;SDS011;7462;53.530;9.414;2022-12-18T14:21:19;9.43;;;5.80;;
14740;SDS011;7462;53.530;9.414;2022-12-18T14:23:49;10.63;;;6.77;;
14740;SDS011;7462;53.530;9.414;2022-12-18T14:26:32;6.77;;;5.40;;
14740;SDS011;7462;53.530;9.414;2022-12-18T14:29:01;8.60;;;5.83;;
14740;SDS011;7462;53.530;9.414;2022-12-18T14:32:03;18.13;;;12.87;;
14740;SDS011;7462;53.530;9.414;2022-12-18T14:34:40;9.83;;;7.70;;
14740;SDS011;7462;53.530;9.414;2022-12-18T14:37:09;14.13;;;9.03;;
14740;SDS011;7462;53.530;9.414;2022-12-18T14:39:38;13.37;;;9.47;;
14740;SDS011;7462;53.530;9.414;2022-12-18T14:42:10;13.47;;;9.30;;
14740;SDS011;7462;53.530;9.414;2022-12-18T14:44:38;13.67;;;10.03;;
14740;SDS011;7462;53.530;9.414;2022-12-18T14:47:26;13.03;;;9.03;;
14740;SDS011;7462;53.530;9.414;2022-12-18T14:49:54;14.57;;;11.10;;
14740;SDS011;7462;53.530;9.414;2022-12-18T14:52:23;16.13;;;9.63;;
14740;SDS011;7462;53.530;9.414;2022-12-18T14:54:54;14.80;;;8.90;;
14740;SDS011;7462;53.530;9.414;2022-12-18T14:57:24;16.27;;;7.53;;
14740;SDS011;7462;53.530;9.414;2022-12-18T15:00:03;12.10;;;6.40;;
14740;SDS011;7462;53.530;9.414;2022-12-18T15:02:34;10.43;;;7.30;;
14740;SDS011;7462;53.530;9.414;2022-12-18T15:05:04;9.20;;;7.00;;
14740;SDS011;7462;53.530;9.414;2022-12-18T15:07:44;8.87;;;5.90;;
14740;SDS011;7462;53.530;9.414;2022-12-18T15:10:14;8.47;;;6.70;;
14740;SDS011;7462;53.530;9.414;2022-12-18T15:12:45;9.90;;;6.90;;
14740;SDS011;7462;53.530;9.414;2022-12-18T15:18:14;9.03;;;6.70;;
14740;SDS011;7462;53.530;9.414;2022-12-18T15:20:46;14.23;;;7.65;;
14740;SDS011;7462;53.530;9.414;2022-12-18T15:23:17;13.87;;;7.23;;
14740;SDS011;7462;53.530;9.414;2022-12-18T15:25:48;15.07;;;8.77;;
14740;SDS011;7462;53.530;9.414;2022-12-18T15:28:24;15.80;;;9.10;;
14740;SDS011;7462;53.530;9.414;2022-12-18T15:31:01;13.47;;;8.13;;
14740;SDS011;7462;53.530;9.414;2022-12-18T15:33:32;11.93;;;7.53;;